FQTE/TET METAR and TAF weather

Enter ICAO airport designator
Station Type Date Time Source
FQTE METAR 2017/01/07 06:00 UTC NOAA

FQTE 070600Z 00000KT 9999 SCT020 28/26 Q1010


Station Type Date Time Source
FQTE Decoded METAR 2017/01/07 06:00 UTC NOAA

Tete, Mozambique (FQTE) 16-11S 033-35E 150M
Jan 07, 2017 - 01:00 AM EST / 2017.01.07 0600 UTC
Wind: Calm:0
Visibility: greater than 7 mile(s):0
Sky conditions: partly cloudy
Temperature: 82 F (28 C)
Dew Point: 78 F (26 C)
Relative Humidity: 88%
Pressure (altimeter): 29.83 in. Hg (1010 hPa)
ob: FQTE 070600Z 00000KT 9999 SCT020 28/26 Q1010
cycle: 6

Station Type Date Time Source
FQTE TAF 2010/11/17 18:54 UTC NOAA

TAF FQTE 171600Z 1718/1818 18006KT 9999 SCT020 SCT025CB BKN050
TEMPO 1722/1808 3000 TSRA SCT012 SCT015CB BKN030
BECMG 1810/1812 17008KT 9999 BKN020
BECMG 1816/1818 22004KT TX38/1812ZTN25/1804Z


Example: see airport list